Time;durP1;ratioP1;P1;durP2;ratioP2;P2;SDS_P1;SDS_P2;PMS_P1;PMS_P2;Temp;Humidity;BMP_temperature;BMP_pressure;BME280_temperature;BME280_humidity;BME280_pressure;Samples;Min_cycle;Max_cycle;Signal;HPM_P1;HPM_P2
2022/03/01 00:00:42;;;;;;;19.40;10.20;;;2.60;98.10;;;;;;4913873;28;120785;-79
2022/03/01 00:03:08;;;;;;;18.02;10.45;;;2.60;98.10;;;;;;4957259;28;20072;-78
2022/03/01 00:05:35;;;;;;;19.45;10.60;;;2.60;98.30;;;;;;4909412;28;162556;-78
2022/03/01 00:08:01;;;;;;;19.10;10.02;;;2.60;98.30;;;;;;4946461;28;20796;-78
2022/03/01 00:10:27;;;;;;;21.02;10.73;;;2.60;98.10;;;;;;4927140;28;80759;-78
2022/03/01 00:12:53;;;;;;;20.13;10.75;;;2.50;98.10;;;;;;4952354;28;20524;-78
2022/03/01 00:15:19;;;;;;;17.50;10.48;;;2.50;98.30;;;;;;4907314;28;243800;-78
2022/03/01 00:17:45;;;;;;;19.67;10.68;;;2.60;98.60;;;;;;4955259;28;20055;-78
2022/03/01 00:20:12;;;;;;;18.40;10.18;;;2.60;98.40;;;;;;4903877;28;280534;-78
2022/03/01 00:22:38;;;;;;;18.58;10.25;;;2.60;98.40;;;;;;4940294;28;20051;-78
2022/03/01 00:25:05;;;;;;;18.58;10.10;;;2.50;98.30;;;;;;4926196;28;54580;-79
2022/03/01 00:27:31;;;;;;;17.35;10.35;;;2.60;98.40;;;;;;4933001;28;20050;-78
2022/03/01 00:29:57;;;;;;;17.17;10.32;;;2.60;98.30;;;;;;4903899;28;24409;-78
2022/03/01 00:32:23;;;;;;;18.23;10.30;;;2.60;98.20;;;;;;4954701;28;20146;-79
2022/03/01 00:34:49;;;;;;;18.30;9.55;;;2.50;98.20;;;;;;4915523;28;254896;-78
2022/03/01 00:37:15;;;;;;;19.90;10.00;;;2.60;98.50;;;;;;4966002;28;20456;-78
2022/03/01 00:39:42;;;;;;;18.42;10.52;;;2.60;98.40;;;;;;4890395;28;228555;-78
2022/03/01 00:42:08;;;;;;;18.80;9.82;;;2.60;98.10;;;;;;4956936;28;20504;-79
2022/03/01 00:44:34;;;;;;;18.00;10.25;;;2.60;98.00;;;;;;4907284;28;131887;-79
2022/03/01 00:47:00;;;;;;;20.13;10.73;;;2.50;98.10;;;;;;4954658;28;20051;-79
2022/03/01 00:49:26;;;;;;;16.52;9.88;;;2.40;98.10;;;;;;4923131;28;109812;-79
2022/03/01 00:51:52;;;;;;;17.60;10.60;;;2.40;98.00;;;;;;4967862;28;20528;-78
2022/03/01 00:54:19;;;;;;;18.25;9.52;;;2.30;98.10;;;;;;4919497;28;161913;-78
2022/03/01 00:56:45;;;;;;;19.90;9.80;;;2.30;98.10;;;;;;4952158;28;20047;-79
2022/03/01 00:59:11;;;;;;;17.02;10.23;;;2.30;98.20;;;;;;4948028;28;249542;-79
2022/03/01 01:01:37;;;;;;;20.98;10.80;;;2.20;98.30;;;;;;4918958;28;20050;-79
2022/03/01 01:04:03;;;;;;;20.52;10.27;;;2.20;98.40;;;;;;4931189;28;245433;-78
2022/03/01 01:06:29;;;;;;;20.13;10.23;;;2.20;98.50;;;;;;4933269;28;20043;-78
2022/03/01 01:08:56;;;;;;;19.75;10.73;;;2.20;98.50;;;;;;4941852;28;269531;-79
2022/03/01 01:11:22;;;;;;;18.55;10.82;;;2.10;98.60;;;;;;4914252;28;20444;-79
2022/03/01 01:13:49;;;;;;;18.27;10.43;;;2.10;98.50;;;;;;4938744;28;268761;-79
2022/03/01 01:16:15;;;;;;;21.40;10.35;;;2.00;98.50;;;;;;4931805;28;20041;-78
2022/03/01 01:18:43;;;;;;;18.38;10.57;;;2.00;98.60;;;;;;4937807;28;20131;-78
2022/03/01 01:21:13;;;;;;;19.20;11.20;;;2.00;98.70;;;;;;4924236;28;20050;-79
2022/03/01 01:23:41;;;;;;;18.48;10.20;;;1.90;98.80;;;;;;4954118;28;20051;-78
2022/03/01 01:26:08;;;;;;;17.80;10.15;;;1.90;99.00;;;;;;4923613;28;20808;-78
2022/03/01 01:28:34;;;;;;;18.75;9.98;;;1.90;99.00;;;;;;4973738;28;20051;-78
2022/03/01 01:31:00;;;;;;;19.73;10.50;;;1.90;99.00;;;;;;4932565;28;100816;-78
2022/03/01 01:33:27;;;;;;;17.38;9.98;;;1.90;99.10;;;;;;4940254;28;20047;-78
2022/03/01 01:35:53;;;;;;;17.85;10.35;;;1.80;99.20;;;;;;4906062;28;38458;-78
2022/03/01 01:38:19;;;;;;;20.92;10.48;;;1.90;99.40;;;;;;4972393;28;20042;-78
2022/03/01 01:40:45;;;;;;;19.95;11.02;;;1.90;99.70;;;;;;4916945;28;168746;-78
2022/03/01 01:43:11;;;;;;;17.48;9.82;;;2.00;99.70;;;;;;4937268;28;20419;-78
2022/03/01 01:45:37;;;;;;;21.48;10.95;;;2.00;99.60;;;;;;4923216;28;20500;-78
2022/03/01 01:48:04;;;;;;;19.38;10.32;;;2.00;99.60;;;;;;4953078;28;20057;-78
2022/03/01 01:50:33;;;;;;;17.77;10.63;;;2.00;99.50;;;;;;4914112;28;68839;-78
2022/03/01 01:53:00;;;;;;;20.42;10.02;;;2.00;99.40;;;;;;4942256;28;20046;-78
2022/03/01 01:55:27;;;;;;;20.23;10.32;;;2.00;99.40;;;;;;4933377;28;215180;-78
2022/03/01 01:57:53;;;;;;;18.25;10.25;;;2.00;99.30;;;;;;4947636;28;20052;-78
2022/03/01 02:00:19;;;;;;;18.25;10.57;;;2.00;99.40;;;;;;4909070;28;139737;-78
2022/03/01 02:02:46;;;;;;;19.08;10.43;;;2.00;99.40;;;;;;4935610;28;20047;-78
2022/03/01 02:05:12;;;;;;;19.65;10.70;;;2.00;99.30;;;;;;4910834;28;138267;-78
2022/03/01 02:07:44;;;;;;;17.13;9.82;;;2.00;99.30;;;;;;4952789;28;20047;-78
2022/03/01 02:10:11;;;;;;;19.27;11.05;;;2.00;99.40;;;;;;4933172;28;178555;-78
2022/03/01 02:12:37;;;;;;;17.55;9.88;;;2.00;99.50;;;;;;4946376;28;20054;-78
2022/03/01 02:15:03;;;;;;;17.67;10.15;;;2.00;99.70;;;;;;4925054;28;160646;-78
2022/03/01 02:17:30;;;;;;;19.05;10.70;;;2.10;99.60;;;;;;4952876;28;20051;-78
2022/03/01 02:19:56;;;;;;;18.80;10.05;;;2.10;99.50;;;;;;4907394;28;102793;-78
2022/03/01 02:22:22;;;;;;;19.48;9.75;;;2.00;99.40;;;;;;4955305;28;20058;-78
2022/03/01 02:24:48;;;;;;;21.80;10.77;;;2.00;99.30;;;;;;4916188;28;215625;-78
2022/03/01 02:27:14;;;;;;;19.42;10.48;;;2.00;99.50;;;;;;4951617;28;20567;-78
2022/03/01 02:29:41;;;;;;;19.27;10.20;;;2.00;99.50;;;;;;4931420;28;29476;-78
2022/03/01 02:32:09;;;;;;;20.48;10.27;;;2.00;99.70;;;;;;4961272;28;20059;-78
2022/03/01 02:34:35;;;;;;;17.52;9.70;;;2.00;99.70;;;;;;4964304;28;152159;-78
2022/03/01 02:37:02;;;;;;;19.83;10.63;;;2.10;99.50;;;;;;4968681;28;20047;-79
2022/03/01 02:39:28;;;;;;;20.42;10.60;;;2.10;99.40;;;;;;4928180;28;140631;-78
2022/03/01 02:41:54;;;;;;;18.88;10.25;;;2.00;99.50;;;;;;4953389;28;20071;-78
2022/03/01 02:44:21;;;;;;;20.40;10.88;;;2.10;99.50;;;;;;4922327;28;83060;-77
2022/03/01 02:46:47;;;;;;;20.48;10.85;;;2.10;99.50;;;;;;4952857;28;20051;-77
2022/03/01 02:49:13;;;;;;;20.65;10.55;;;2.10;99.50;;;;;;4929130;28;237902;-77
2022/03/01 02:51:40;;;;;;;20.73;11.15;;;2.10;99.40;;;;;;4931179;28;20477;-78
2022/03/01 02:54:07;;;;;;;21.40;10.40;;;2.10;99.40;;;;;;4946966;28;256147;-78
2022/03/01 02:56:34;;;;;;;18.67;10.23;;;2.00;99.50;;;;;;4932629;28;20142;-78
2022/03/01 02:59:00;;;;;;;18.77;10.60;;;2.10;99.50;;;;;;4943831;28;251455;-78
2022/03/01 03:01:29;;;;;;;19.17;10.82;;;2.10;99.40;;;;;;4928518;28;20059;-77
2022/03/01 03:03:56;;;;;;;21.50;10.95;;;2.10;99.50;;;;;;4938556;28;261286;-78
2022/03/01 03:06:23;;;;;;;18.15;10.30;;;2.10;99.40;;;;;;4917801;28;20084;-78
2022/03/01 03:08:49;;;;;;;19.63;10.30;;;2.10;99.70;;;;;;4940342;28;273567;-78
2022/03/01 03:11:15;;;;;;;21.58;10.40;;;2.10;99.60;;;;;;4911064;28;20039;-78
2022/03/01 03:13:42;;;;;;;19.55;10.85;;;2.00;99.60;;;;;;4988556;28;20074;-78
2022/03/01 03:16:10;;;;;;;20.00;10.70;;;2.10;99.60;;;;;;4928838;28;193200;-78
2022/03/01 03:18:37;;;;;;;19.23;10.65;;;2.10;99.50;;;;;;4955311;28;20067;-78
2022/03/01 03:21:04;;;;;;;19.55;11.07;;;2.00;99.60;;;;;;4906394;28;132803;-78
2022/03/01 03:23:31;;;;;;;19.50;11.00;;;2.10;99.50;;;;;;4987320;28;20081;-78
2022/03/01 03:25:57;;;;;;;19.25;11.13;;;2.00;99.50;;;;;;4900108;28;164805;-78
2022/03/01 03:28:24;;;;;;;19.70;10.88;;;2.00;99.50;;;;;;4939916;28;20062;-78
2022/03/01 03:30:50;;;;;;;21.30;10.88;;;2.00;99.60;;;;;;4917176;28;84113;-78
2022/03/01 03:33:16;;;;;;;19.73;11.15;;;2.00;99.70;;;;;;4950742;28;20170;-78
2022/03/01 03:35:43;;;;;;;20.00;11.43;;;1.90;99.70;;;;;;4915588;28;235643;-78
2022/03/01 03:38:09;;;;;;;20.55;11.02;;;2.00;99.80;;;;;;4949316;28;20051;-78
2022/03/01 03:40:35;;;;;;;18.55;10.48;;;1.90;99.80;;;;;;4904187;28;251041;-78
2022/03/01 03:43:02;;;;;;;22.48;10.32;;;2.00;99.90;;;;;;4950475;28;20047;-78
2022/03/01 03:45:28;;;;;;;20.60;10.60;;;1.90;99.90;;;;;;4913772;28;222561;-78
2022/03/01 03:47:54;;;;;;;20.08;10.88;;;2.00;99.90;;;;;;4950392;28;20055;-78
2022/03/01 03:50:20;;;;;;;19.90;11.63;;;1.90;99.90;;;;;;4927037;28;92897;-78
2022/03/01 03:52:47;;;;;;;22.15;11.52;;;1.90;99.90;;;;;;4954043;28;20070;-78
2022/03/01 03:55:13;;;;;;;21.42;11.52;;;1.90;99.90;;;;;;4916726;28;197570;-78
2022/03/01 03:57:40;;;;;;;18.70;10.73;;;1.90;99.90;;;;;;4934495;28;20051;-78
2022/03/01 04:00:09;;;;;;;20.13;11.13;;;1.90;99.90;;;;;;4922855;28;145030;-78
2022/03/01 04:02:35;;;;;;;25.05;11.48;;;2.00;99.90;;;;;;4947062;28;20051;-78
2022/03/01 04:05:01;;;;;;;20.02;11.52;;;2.00;99.90;;;;;;4897049;28;157128;-78
2022/03/01 04:07:29;;;;;;;21.77;11.48;;;1.90;99.90;;;;;;4927002;28;20054;-78
2022/03/01 04:09:56;;;;;;;22.58;11.38;;;2.00;99.90;;;;;;4912347;28;209405;-78
2022/03/01 04:12:22;;;;;;;21.73;11.57;;;2.00;99.90;;;;;;4938691;28;20051;-78
2022/03/01 04:14:48;;;;;;;20.42;11.55;;;2.00;99.90;;;;;;4919939;28;259790;-78
2022/03/01 04:17:14;;;;;;;26.13;11.82;;;2.00;99.90;;;;;;4952215;28;20563;-78
2022/03/01 04:19:40;;;;;;;20.98;11.15;;;2.00;99.90;;;;;;4919701;28;20035;-78
2022/03/01 04:22:06;;;;;;;19.08;11.32;;;1.90;99.90;;;;;;4951955;28;20050;-78
2022/03/01 04:24:33;;;;;;;21.30;11.90;;;1.90;99.90;;;;;;4923505;28;161727;-78
2022/03/01 04:26:59;;;;;;;22.17;11.18;;;1.90;99.90;;;;;;4962951;28;20059;-78
2022/03/01 04:29:25;;;;;;;20.10;11.15;;;1.90;99.90;;;;;;4929836;28;173238;-79
2022/03/01 04:31:51;;;;;;;21.50;11.80;;;1.90;99.90;;;;;;4964445;28;20401;-78
2022/03/01 04:34:18;;;;;;;21.08;11.82;;;1.90;99.90;;;;;;4951273;28;20530;-77
2022/03/01 04:36:44;;;;;;;19.75;11.82;;;1.90;99.90;;;;;;4958129;28;20152;-78
2022/03/01 04:39:10;;;;;;;22.33;11.65;;;2.00;99.90;;;;;;4947466;28;157952;-78
2022/03/01 04:41:38;;;;;;;20.55;11.63;;;2.00;99.90;;;;;;4924599;28;20047;-78
2022/03/01 04:44:07;;;;;;;21.08;12.00;;;1.90;99.90;;;;;;4939199;28;260919;-78
2022/03/01 04:46:33;;;;;;;21.42;12.50;;;1.90;99.90;;;;;;4926054;28;20055;-78
2022/03/01 04:48:59;;;;;;;20.63;12.23;;;1.90;99.90;;;;;;4939311;28;268350;-78
2022/03/01 04:51:25;;;;;;;21.13;11.73;;;1.90;99.90;;;;;;4941675;28;20057;-78
2022/03/01 04:53:52;;;;;;;22.40;12.07;;;1.90;99.90;;;;;;4937952;28;257837;-78
2022/03/01 04:56:19;;;;;;;22.92;12.40;;;2.00;99.90;;;;;;4923515;28;20050;-78
2022/03/01 04:58:45;;;;;;;23.50;12.32;;;2.00;99.90;;;;;;4933318;28;261700;-77
2022/03/01 05:01:11;;;;;;;24.20;11.40;;;2.00;99.90;;;;;;4939066;28;20086;-78
2022/03/01 05:03:38;;;;;;;23.58;12.13;;;2.00;99.90;;;;;;4956544;28;20051;-78
2022/03/01 05:06:04;;;;;;;21.90;11.82;;;2.00;99.90;;;;;;4914104;28;135812;-78
2022/03/01 05:08:30;;;;;;;22.23;12.65;;;2.10;99.90;;;;;;4993123;28;20058;-78
2022/03/01 05:10:57;;;;;;;21.25;12.32;;;2.10;99.90;;;;;;4934071;28;100110;-78
2022/03/01 05:13:24;;;;;;;22.85;12.27;;;2.10;99.90;;;;;;4953347;28;20388;-78
2022/03/01 05:15:50;;;;;;;19.60;11.68;;;2.10;99.90;;;;;;4910210;28;107302;-78
2022/03/01 05:18:16;;;;;;;21.92;11.68;;;2.20;99.90;;;;;;4951823;28;20078;-78
2022/03/01 05:20:42;;;;;;;21.48;12.18;;;2.20;99.90;;;;;;4925990;28;184685;-78
2022/03/01 05:23:08;;;;;;;21.98;11.75;;;2.20;99.90;;;;;;4956568;28;20066;-78
2022/03/01 05:25:34;;;;;;;23.05;12.55;;;2.20;99.90;;;;;;4899549;28;131324;-79
2022/03/01 05:28:00;;;;;;;22.73;12.48;;;2.30;99.90;;;;;;4929861;28;20047;-78
2022/03/01 05:30:27;;;;;;;25.98;13.13;;;2.30;99.90;;;;;;4922083;28;20723;-78
2022/03/01 05:32:54;;;;;;;23.58;12.23;;;2.30;99.90;;;;;;4951820;28;20062;-78
2022/03/01 05:35:24;;;;;;;22.17;12.88;;;2.30;99.90;;;;;;4937977;28;180729;-78
2022/03/01 05:37:52;;;;;;;21.75;12.75;;;2.30;99.90;;;;;;4936793;28;20047;-78
2022/03/01 05:40:20;;;;;;;29.25;13.07;;;2.30;99.90;;;;;;4919442;28;168780;-78
2022/03/01 05:42:46;;;;;;;23.17;12.65;;;2.40;99.90;;;;;;4936706;28;20156;-79
2022/03/01 05:45:12;;;;;;;20.85;12.65;;;2.40;99.90;;;;;;4910105;28;120925;-79
2022/03/01 05:47:40;;;;;;;23.30;12.57;;;2.40;99.90;;;;;;4953311;28;20047;-79
2022/03/01 05:50:09;;;;;;;24.35;12.90;;;2.40;99.90;;;;;;4897741;28;205918;-79
2022/03/01 05:52:38;;;;;;;23.52;13.52;;;2.40;99.90;;;;;;4932179;28;20055;-78
2022/03/01 05:55:06;;;;;;;22.05;12.95;;;2.30;99.90;;;;;;4907660;28;244453;-79
2022/03/01 05:57:32;;;;;;;21.45;12.57;;;2.30;99.90;;;;;;4929918;28;20055;-78
2022/03/01 05:59:59;;;;;;;21.17;12.18;;;2.20;99.90;;;;;;4945984;28;149001;-78
2022/03/01 06:02:25;;;;;;;27.15;12.30;;;2.20;99.90;;;;;;4954325;28;21297;-77
2022/03/01 06:04:52;;;;;;;21.75;12.48;;;2.20;99.90;;;;;;4908717;28;186082;-78
2022/03/01 06:07:19;;;;;;;23.48;13.07;;;2.10;99.90;;;;;;4966410;28;20148;-79
2022/03/01 06:09:45;;;;;;;25.00;12.93;;;2.10;99.90;;;;;;4927820;28;177254;-79
2022/03/01 06:12:11;;;;;;;23.52;12.52;;;2.10;99.90;;;;;;4955058;28;20058;-78
2022/03/01 06:14:37;;;;;;;22.58;13.15;;;2.10;99.90;;;;;;4899483;28;250527;-78
2022/03/01 06:17:04;;;;;;;21.10;12.32;;;2.10;99.90;;;;;;4946408;28;20066;-78
2022/03/01 06:19:30;;;;;;;23.70;12.77;;;2.10;99.90;;;;;;4910866;28;257980;-78
2022/03/01 06:21:56;;;;;;;23.10;12.98;;;2.10;99.90;;;;;;4954569;28;20452;-78
2022/03/01 06:24:23;;;;;;;23.13;13.40;;;2.10;99.90;;;;;;4918550;28;105869;-77
2022/03/01 06:26:50;;;;;;;24.70;13.15;;;2.20;99.90;;;;;;4960680;28;20054;-78
2022/03/01 06:29:16;;;;;;;22.17;12.35;;;2.10;99.90;;;;;;4948642;28;131200;-77
2022/03/01 06:31:42;;;;;;;21.15;13.05;;;2.20;99.90;;;;;;4947404;28;20047;-78
2022/03/01 06:34:08;;;;;;;23.02;12.35;;;2.20;99.90;;;;;;4937910;28;238265;-78
2022/03/01 06:36:35;;;;;;;23.33;13.35;;;2.20;99.90;;;;;;4924667;28;20047;-77
2022/03/01 06:39:01;;;;;;;22.65;12.98;;;2.20;99.90;;;;;;4934791;28;259581;-77
2022/03/01 06:41:27;;;;;;;22.48;12.60;;;2.20;99.90;;;;;;4936607;28;20051;-78
2022/03/01 06:43:53;;;;;;;22.23;12.43;;;2.20;99.90;;;;;;4932620;28;264080;-79
2022/03/01 06:46:20;;;;;;;23.38;12.75;;;2.30;99.90;;;;;;4922204;28;20129;-78
2022/03/01 06:48:47;;;;;;;25.60;13.65;;;2.30;99.90;;;;;;4928124;28;274057;-79
2022/03/01 06:51:13;;;;;;;22.63;12.60;;;2.30;99.90;;;;;;4933937;28;20043;-79
2022/03/01 06:53:40;;;;;;;22.95;13.15;;;2.30;99.90;;;;;;4932174;28;20051;-79
2022/03/01 06:56:06;;;;;;;23.10;11.98;;;2.40;99.90;;;;;;4920477;28;228528;-79
2022/03/01 06:58:33;;;;;;;22.92;13.23;;;2.40;99.90;;;;;;4931808;28;20053;-79
2022/03/01 07:01:03;;;;;;;22.27;13.15;;;2.50;99.90;;;;;;4915455;28;112052;-80
2022/03/01 07:03:29;;;;;;;22.05;12.98;;;2.50;99.90;;;;;;4963248;28;20056;-80
2022/03/01 07:05:55;;;;;;;24.67;13.15;;;2.50;99.90;;;;;;4891509;28;134164;-79
2022/03/01 07:08:23;;;;;;;19.50;11.80;;;2.60;99.90;;;;;;4951286;28;20051;-75
2022/03/01 07:10:50;;;;;;;22.52;12.85;;;2.70;99.90;;;;;;4938686;28;73128;-76
2022/03/01 07:13:16;;;;;;;22.60;12.38;;;2.70;99.90;;;;;;4930452;28;20496;-75
2022/03/01 07:15:42;;;;;;;24.20;13.45;;;2.80;99.90;;;;;;4911564;28;68436;-75
2022/03/01 07:18:08;;;;;;;20.15;12.40;;;2.90;99.90;;;;;;4927166;28;20047;-75
2022/03/01 07:20:37;;;;;;;22.73;12.48;;;3.00;99.90;;;;;;4925892;28;26217;-76
2022/03/01 07:23:04;;;;;;;20.70;12.63;;;3.00;99.90;;;;;;4951552;28;20047;-75
2022/03/01 07:25:30;;;;;;;20.75;11.93;;;3.10;99.90;;;;;;4918193;28;113255;-76
2022/03/01 07:27:57;;;;;;;25.70;13.55;;;3.10;99.90;;;;;;4937061;28;20062;-76
2022/03/01 07:30:25;;;;;;;20.15;11.95;;;3.20;99.90;;;;;;4897647;28;162379;-76
2022/03/01 07:32:52;;;;;;;23.17;12.48;;;3.30;99.90;;;;;;4932057;28;20199;-77
2022/03/01 07:35:20;;;;;;;22.45;11.98;;;3.30;99.90;;;;;;4902056;28;150282;-76
2022/03/01 07:37:47;;;;;;;21.50;12.65;;;3.40;99.90;;;;;;4935786;28;20051;-76
2022/03/01 07:40:14;;;;;;;21.63;12.50;;;3.40;99.90;;;;;;4920598;28;52942;-76
2022/03/01 07:42:42;;;;;;;20.70;12.55;;;3.50;99.90;;;;;;4949741;28;20406;-76
2022/03/01 07:45:09;;;;;;;20.58;12.73;;;3.60;99.90;;;;;;4908160;28;217981;-77
2022/03/01 07:47:35;;;;;;;26.00;13.68;;;3.60;99.90;;;;;;4950162;28;20047;-76
2022/03/01 07:50:01;;;;;;;23.33;12.60;;;3.60;99.90;;;;;;4920315;28;139674;-76
2022/03/01 07:52:27;;;;;;;24.50;13.45;;;3.70;99.90;;;;;;4952717;28;20062;-76
2022/03/01 07:54:53;;;;;;;22.63;13.32;;;3.70;99.90;;;;;;4910839;28;253067;-76
2022/03/01 07:57:20;;;;;;;23.52;13.38;;;3.80;99.90;;;;;;4949784;28;20047;-76
2022/03/01 07:59:46;;;;;;;21.50;13.35;;;3.80;99.90;;;;;;4917577;28;120970;-77
2022/03/01 08:02:12;;;;;;;23.65;12.88;;;3.90;99.90;;;;;;4969555;28;20069;-77
2022/03/01 08:04:41;;;;;;;23.83;12.30;;;3.90;99.90;;;;;;4904451;28;249979;-77
2022/03/01 08:07:11;;;;;;;22.02;13.43;;;3.90;99.50;;;;;;4948487;28;20571;-77
2022/03/01 08:09:39;;;;;;;23.35;13.13;;;4.00;99.50;;;;;;4898690;28;20201;-76
2022/03/01 08:12:06;;;;;;;21.30;13.07;;;4.00;99.20;;;;;;4940995;28;20062;-77
2022/03/01 08:14:34;;;;;;;22.15;12.73;;;4.00;99.40;;;;;;4890304;28;222751;-76
2022/03/01 08:17:01;;;;;;;22.42;13.25;;;4.10;99.20;;;;;;4947609;28;20517;-76
2022/03/01 08:19:27;;;;;;;21.65;12.85;;;4.10;99.00;;;;;;4892007;28;217839;-76
2022/03/01 08:21:54;;;;;;;24.75;13.15;;;4.10;99.10;;;;;;4951190;28;20059;-77
2022/03/01 08:24:20;;;;;;;23.83;13.75;;;4.20;99.00;;;;;;4909970;28;179573;-77
2022/03/01 08:26:46;;;;;;;23.77;13.00;;;4.20;99.00;;;;;;4957001;28;20059;-77
2022/03/01 08:29:12;;;;;;;25.20;13.70;;;4.30;98.80;;;;;;4931572;28;164136;-77
2022/03/01 08:31:41;;;;;;;21.95;13.55;;;4.30;99.10;;;;;;4921258;28;20051;-77
2022/03/01 08:34:08;;;;;;;22.83;13.48;;;4.40;99.30;;;;;;4933305;28;258438;-77
2022/03/01 08:36:35;;;;;;;23.45;14.05;;;4.50;99.40;;;;;;4931900;28;20057;-77
2022/03/01 08:39:01;;;;;;;22.35;13.63;;;4.50;99.50;;;;;;4931299;28;251184;-77
2022/03/01 08:41:27;;;;;;;22.10;13.27;;;4.60;99.20;;;;;;4930347;28;20046;-77
2022/03/01 08:43:53;;;;;;;23.63;14.23;;;4.70;98.80;;;;;;4928034;28;272154;-77
2022/03/01 08:46:20;;;;;;;23.17;13.88;;;4.80;98.80;;;;;;4929119;28;20089;-77
2022/03/01 08:48:46;;;;;;;24.10;14.05;;;4.80;98.60;;;;;;4928825;28;255596;-77
2022/03/01 08:51:13;;;;;;;23.95;13.45;;;4.90;98.80;;;;;;4918895;28;20053;-78
2022/03/01 08:53:39;;;;;;;25.45;14.82;;;5.00;98.80;;;;;;4945398;28;20061;-78
2022/03/01 08:56:08;;;;;;;25.05;14.65;;;5.10;98.80;;;;;;4891574;28;203974;-78
2022/03/01 08:58:34;;;;;;;25.73;14.05;;;5.20;98.50;;;;;;4942217;28;20074;-77
2022/03/01 09:01:00;;;;;;;24.80;13.80;;;5.30;98.10;;;;;;4907820;28;232613;-77
2022/03/01 09:03:28;;;;;;;21.77;13.38;;;5.30;97.80;;;;;;4932310;28;20078;-78
2022/03/01 09:05:54;;;;;;;22.38;13.80;;;5.40;97.50;;;;;;4905335;28;163002;-77
2022/03/01 09:08:20;;;;;;;24.20;13.52;;;5.40;97.80;;;;;;4948619;28;20057;-77
2022/03/01 09:10:46;;;;;;;23.50;13.38;;;5.60;97.60;;;;;;4939531;28;108956;-78
2022/03/01 09:13:12;;;;;;;24.92;13.93;;;5.70;97.50;;;;;;4947957;28;20073;-77
2022/03/01 09:15:38;;;;;;;21.40;13.68;;;5.80;97.20;;;;;;4911287;28;215401;-78
2022/03/01 09:18:06;;;;;;;26.35;13.48;;;5.90;97.40;;;;;;4943863;28;20051;-79
2022/03/01 09:20:33;;;;;;;24.80;13.75;;;6.00;97.20;;;;;;4933919;28;20038;-77
2022/03/01 09:23:01;;;;;;;23.52;14.02;;;6.10;97.70;;;;;;4952152;28;20058;-77
2022/03/01 09:25:27;;;;;;;27.02;13.95;;;6.20;97.20;;;;;;4925651;28;152271;-77
2022/03/01 09:27:54;;;;;;;23.92;13.82;;;6.20;96.70;;;;;;4947926;28;20067;-79
2022/03/01 09:30:20;;;;;;;23.98;14.20;;;6.30;96.90;;;;;;4906129;28;189538;-79
2022/03/01 09:32:46;;;;;;;23.67;14.30;;;6.40;96.60;;;;;;4950988;28;20059;-79
2022/03/01 09:35:13;;;;;;;21.60;13.20;;;6.40;96.60;;;;;;4914287;28;138300;-80
2022/03/01 09:37:41;;;;;;;23.45;13.57;;;6.50;96.50;;;;;;4956152;28;20055;-78
2022/03/01 09:40:11;;;;;;;22.10;13.70;;;6.60;95.10;;;;;;4934514;28;181076;-79
2022/03/01 09:42:37;;;;;;;22.23;13.13;;;6.70;96.00;;;;;;4942382;28;20050;-78
2022/03/01 09:45:04;;;;;;;23.50;13.50;;;6.70;95.40;;;;;;4899573;28;68020;-78
2022/03/01 09:47:31;;;;;;;21.77;13.50;;;6.70;94.60;;;;;;4933978;28;20062;-78
2022/03/01 09:49:57;;;;;;;24.17;13.95;;;6.70;94.50;;;;;;4917348;28;152199;-78
2022/03/01 09:52:24;;;;;;;24.17;14.55;;;6.70;94.30;;;;;;4940339;28;20390;-78
2022/03/01 09:54:51;;;;;;;24.08;13.82;;;6.70;94.80;;;;;;4918321;28;199306;-79
2022/03/01 09:57:19;;;;;;;22.08;14.00;;;6.70;93.90;;;;;;4943982;28;20585;-78
2022/03/01 09:59:46;;;;;;;22.58;14.10;;;6.70;94.20;;;;;;4913315;28;234582;-77
2022/03/01 10:02:12;;;;;;;21.20;13.60;;;6.80;93.90;;;;;;4951215;28;20055;-77
2022/03/01 10:04:50;;;;;;;24.27;14.23;;;6.80;93.90;;;;;;4906198;28;129337;-77
2022/03/01 10:07:24;;;;;;;24.38;14.98;;;6.90;93.30;;;;;;4949874;28;20062;-78
2022/03/01 10:09:51;;;;;;;21.85;14.07;;;6.90;93.80;;;;;;4900259;28;20238;-79
2022/03/01 10:12:28;;;;;;;21.58;14.13;;;7.00;93.80;;;;;;4927722;28;20043;-77
2022/03/01 10:15:10;;;;;;;24.73;14.75;;;7.20;93.70;;;;;;4899956;28;222371;-77
2022/03/01 10:17:41;;;;;;;22.17;13.18;;;7.20;92.90;;;;;;4935233;28;20058;-77
2022/03/01 10:20:16;;;;;;;22.13;13.85;;;7.30;93.30;;;;;;4918978;28;220617;-78
2022/03/01 10:22:44;;;;;;;21.48;13.52;;;7.40;93.20;;;;;;4954230;28;20051;-78
2022/03/01 10:25:15;;;;;;;24.02;13.88;;;7.40;93.30;;;;;;4924397;28;92470;-77
2022/03/01 10:27:47;;;;;;;22.73;14.38;;;7.60;92.50;;;;;;4952604;28;20078;-77
2022/03/01 10:30:23;;;;;;;23.60;14.40;;;7.70;93.00;;;;;;4919464;28;151321;-77
2022/03/01 10:32:49;;;;;;;21.55;13.35;;;7.80;93.10;;;;;;4950866;28;20066;-77
2022/03/01 10:35:15;;;;;;;23.95;14.25;;;8.00;93.10;;;;;;4922742;28;46160;-77
2022/03/01 10:37:41;;;;;;;22.83;13.60;;;8.10;92.60;;;;;;4935231;28;20055;-77
2022/03/01 10:40:24;;;;;;;23.50;14.13;;;8.30;91.60;;;;;;4920168;28;91844;-77
2022/03/01 10:43:02;;;;;;;20.58;13.30;;;8.50;91.20;;;;;;4958062;28;20062;-77
2022/03/01 10:45:41;;;;;;;21.08;13.18;;;8.60;90.70;;;;;;4925616;28;57996;-77
2022/03/01 10:48:10;;;;;;;22.70;13.73;;;8.80;90.60;;;;;;4944090;28;20542;-77
2022/03/01 10:50:38;;;;;;;22.27;14.07;;;9.00;89.70;;;;;;4923475;28;40303;-77
2022/03/01 10:53:06;;;;;;;21.50;13.90;;;9.10;88.50;;;;;;4948457;28;20524;-77
2022/03/01 10:55:34;;;;;;;22.05;13.35;;;9.20;90.00;;;;;;4924772;28;177280;-77
2022/03/01 10:58:05;;;;;;;21.52;13.35;;;9.30;86.10;;;;;;4943843;28;20055;-77
2022/03/01 11:00:33;;;;;;;21.90;13.05;;;9.10;84.40;;;;;;4938448;28;223265;-77
2022/03/01 11:03:01;;;;;;;19.63;12.90;;;9.10;85.00;;;;;;4978911;28;20059;-76
2022/03/01 11:05:30;;;;;;;21.23;14.02;;;9.10;86.00;;;;;;4902574;28;213552;-76
2022/03/01 11:08:00;;;;;;;23.73;14.68;;;9.00;85.10;;;;;;4944083;28;20059;-76
2022/03/01 11:10:27;;;;;;;21.25;13.50;;;9.00;84.10;;;;;;4910285;28;173404;-76
2022/03/01 11:12:54;;;;;;;21.02;13.50;;;9.00;85.50;;;;;;4947786;28;20059;-77
2022/03/01 11:15:41;;;;;;;22.50;14.20;;;9.10;84.90;;;;;;4913127;28;166297;-76
2022/03/01 11:18:24;;;;;;;22.63;14.27;;;9.10;85.70;;;;;;4975704;28;20062;-78
2022/03/01 11:20:53;;;;;;;20.73;14.25;;;9.10;85.60;;;;;;4906205;28;212936;-77
2022/03/01 11:23:23;;;;;;;21.75;13.85;;;9.20;85.20;;;;;;4937306;28;20054;-78
2022/03/01 11:25:52;;;;;;;23.10;14.00;;;9.20;85.60;;;;;;4910068;28;216933;-77
2022/03/01 11:28:39;;;;;;;23.15;14.63;;;9.20;84.00;;;;;;4946813;28;20070;-77
2022/03/01 11:31:17;;;;;;;22.27;13.98;;;9.20;85.30;;;;;;4939163;28;263609;-75
2022/03/01 11:33:53;;;;;;;22.10;13.55;;;9.20;84.20;;;;;;4978456;28;20405;-78
2022/03/01 11:36:21;;;;;;;22.67;14.05;;;9.20;83.10;;;;;;4909937;28;20054;-77
2022/03/01 11:38:47;;;;;;;24.85;14.95;;;9.30;82.60;;;;;;4915438;28;245131;-77
2022/03/01 11:41:25;;;;;;;25.60;15.60;;;9.30;84.00;;;;;;4919380;28;20047;-77
2022/03/01 11:43:57;;;;;;;22.27;14.83;;;9.40;83.40;;;;;;4942211;28;248142;-79
2022/03/01 11:46:23;;;;;;;22.08;13.32;;;9.50;83.30;;;;;;4936655;28;20046;-78
2022/03/01 11:48:51;;;;;;;21.90;14.68;;;9.70;83.90;;;;;;4913309;28;256898;-78
2022/03/01 11:51:17;;;;;;;21.50;13.95;;;9.80;84.10;;;;;;4936485;28;20043;-80
2022/03/01 11:53:46;;;;;;;24.55;14.40;;;9.90;83.80;;;;;;4943743;28;248605;-75
2022/03/01 11:56:13;;;;;;;22.73;14.55;;;9.90;81.50;;;;;;4953210;28;20043;-78
2022/03/01 11:58:39;;;;;;;22.77;15.02;;;9.90;81.80;;;;;;4947040;28;20047;-77
2022/03/01 12:01:07;;;;;;;23.25;14.43;;;9.80;80.80;;;;;;4923491;28;157479;-77
2022/03/01 12:03:37;;;;;;;23.33;14.70;;;9.70;81.10;;;;;;4945142;28;20053;-79
2022/03/01 12:06:07;;;;;;;22.83;14.23;;;9.60;82.10;;;;;;4889284;28;129328;-77
2022/03/01 12:08:37;;;;;;;22.65;14.63;;;9.60;81.90;;;;;;4947591;28;20055;-77
2022/03/01 12:11:03;;;;;;;23.92;15.30;;;9.60;81.80;;;;;;4913940;28;247259;-76
2022/03/01 12:13:46;;;;;;;21.63;14.57;;;9.60;82.20;;;;;;4947214;28;20394;-77
2022/03/01 12:16:28;;;;;;;21.58;15.05;;;9.60;81.60;;;;;;4920483;28;20055;-77
2022/03/01 12:19:08;;;;;;;22.48;14.93;;;9.50;81.60;;;;;;4924543;28;262244;-77
2022/03/01 12:21:35;;;;;;;23.45;14.40;;;9.50;81.50;;;;;;4929634;28;20394;-77
2022/03/01 12:24:02;;;;;;;22.75;14.55;;;9.40;80.30;;;;;;4918198;28;263060;-77
2022/03/01 12:26:28;;;;;;;20.70;14.48;;;9.40;80.80;;;;;;4912407;28;20379;-78
2022/03/01 12:28:59;;;;;;;25.27;15.82;;;9.40;81.50;;;;;;4918361;28;248780;-77
2022/03/01 12:31:28;;;;;;;26.00;14.82;;;9.40;81.80;;;;;;4929805;28;20065;-76
2022/03/01 12:33:59;;;;;;;23.55;14.80;;;9.40;81.90;;;;;;4921514;28;263041;-77